Details From ENBR - Bergen Lufthavn Flesland
To EGPB - Sumburgh
Flight Number -
Tags Generated
Created
Modified
Stats Distance 196 nm / 364 km
Max Altitude 0 ft / 0 m
Waypoints 2
Social Downloads 0
Likes 0
Share VATSIM

Download

Looking for another format? Having issues loading an existing format? Contact us
Advertisement - Login to hide

Notes

Generated

Route

ENBR EGPB

ID Type Via Altitude Latitude Longitude Leg Dist Tot Dist Heading (true) Name
O ENBR APT - 0 ft / 0 m 60.30662˚ 5.21370˚ - 0 nm - -
O EGPB APT - 0 ft / 0 m 59.87476˚ -1.29047˚ 196 nm 196 nm 265° / 260° -

Altitude Profile

Advertisement - Login to hide

Weather


0- 5 10 15 20 25 30 35+ Temperature / ° C

Clouds and Precipitation
Forecast for 2018-05-20 18:00 UTC. Updated 5 hours ago

Ground ~20,000 ft ~40,000 ft Winds

ENBR

Details ICAO ENBR (BGO)
Name Bergen Lufthavn Flesland
Region Norway
Timezone Europe/Oslo (UTC+2.0)
Stats Elevation 165 ft / 50 m (AMSL)
Location 60.293388° 5.218140°
Runways 1
Magnetic Variation 0.918° E

METAR

ENBR 202150Z 17009KT CAVOK 11/06 Q1024 RMK WIND 1200FT 17024KT

Decode

TAF

TAF ENBR 201700Z 2018/2118 19015KT 9999 FEW030 TEMPO 2021/2106 VRB05KT

Decode

Departure Runways

ID Width Length Bearing (true) Bearing (mag) Surface Threshold Offset Overrun Length
17 148 ft / 45 m 9,793 ft / 2,985 m 170.56° 169.64° Asphalt 886 ft / 270 m 0 ft / 0 m
35 148 ft / 45 m 9,793 ft / 2,985 m 350.57° 349.65° Asphalt 886 ft / 270 m 0 ft / 0 m

EGPB

Details ICAO EGPB (LSI)
Name Sumburgh
Region United Kingdom
Timezone Europe/London (UTC+1.0)
Stats Elevation 20 ft / 6 m (AMSL)
Location 59.878134° -1.291097°
Runways 3
Magnetic Variation 1.972° W

METAR

EGPB 202150Z AUTO 19005KT 9999 OVC018/// 10/08 Q1017

Decode

TAF

Not found

Destination Runways

ID Width Length Bearing (true) Bearing (mag) Surface Threshold Offset Overrun Length
06 148 ft / 45 m 1,778 ft / 542 m 53.40° 55.37° Asphalt 0 ft / 0 m 0 ft / 0 m
09 148 ft / 45 m 4,911 ft / 1,497 m 83.55° 85.52° Asphalt 344 ft / 105 m 0 ft / 0 m
15 151 ft / 46 m 4,682 ft / 1,427 m 143.46° 145.43° Asphalt 614 ft / 187 m 0 ft / 0 m
24 148 ft / 45 m 1,778 ft / 542 m 233.40° 235.37° Asphalt 0 ft / 0 m 0 ft / 0 m
27 148 ft / 45 m 4,911 ft / 1,497 m 263.57° 265.54° Asphalt 295 ft / 90 m 0 ft / 0 m
33 151 ft / 46 m 4,682 ft / 1,427 m 323.47° 325.44° Asphalt 627 ft / 191 m 0 ft / 0 m

Approach Navaids

Runway Type Ident Frequency Range Bearing (true) Bearing (mag) Slope Elevation
09 Localiser SUB 108.50 MHz 18 nm / 33 km 78.46° 80.43° - 20 ft / 6 m (AMSL)
09 DME SUB 108.50 MHz 18 nm / 33 km - - - 20 ft / 6 m (AMSL)
27 Localiser ISG 108.50 MHz 18 nm / 33 km 259.63° 261.60° - 20 ft / 6 m (AMSL)
27 Glidescope ISG 108.50 MHz 10 nm / 19 km 263.56° 265.53° 3.00° 35 ft / 11 m (AMSL)
27 DME ISG 108.50 MHz 18 nm / 33 km - - - 20 ft / 6 m (AMSL)

Popular Alternatives